Time;durP1;ratioP1;P1;durP2;ratioP2;P2;SDS_P1;SDS_P2;PMS_P1;PMS_P2;Temp;Humidity;BMP_temperature;BMP_pressure;BME280_temperature;BME280_humidity;BME280_pressure;Samples;Min_cycle;Max_cycle;Signal;HPM_P1;HPM_P2
2023/07/08 00:01:56;;;;;;;3.50;1.90;;;;;;;21.45;49.13;101734.53;4977491;28;108961;-26
2023/07/08 00:04:22;;;;;;;5.68;1.67;;;;;;;21.47;49.00;101744.41;4978310;28;96585;-26
2023/07/08 00:06:47;;;;;;;2.65;1.60;;;;;;;21.36;48.59;101728.00;4978364;28;96838;-27
2023/07/08 00:09:13;;;;;;;3.78;1.77;;;;;;;21.37;49.10;101730.59;4977592;28;98809;-26
2023/07/08 00:11:38;;;;;;;3.20;1.63;;;;;;;21.39;49.57;101730.44;4977609;28;97797;-26
2023/07/08 00:14:04;;;;;;;3.30;1.40;;;;;;;21.36;49.35;101736.25;4977666;28;97131;-26
2023/07/08 00:16:29;;;;;;;2.35;1.42;;;;;;;21.34;49.13;101725.38;4978019;28;96792;-26
2023/07/08 00:18:55;;;;;;;2.80;1.65;;;;;;;21.24;49.25;101723.59;4977459;28;97475;-28
2023/07/08 00:21:20;;;;;;;5.22;1.70;;;;;;;21.26;49.41;101730.72;4977572;28;97296;-26
2023/07/08 00:23:50;;;;;;;4.53;2.05;;;;;;;21.20;49.66;101721.13;4978218;28;96631;-27
2023/07/08 00:26:21;;;;;;;3.00;1.73;;;;;;;21.17;49.69;101723.31;4976434;28;96860;-26
2023/07/08 00:28:46;;;;;;;4.15;1.90;;;;;;;21.13;49.45;101719.97;4976164;28;100871;-26
2023/07/08 00:31:12;;;;;;;3.15;1.60;;;;;;;21.16;49.31;101722.41;4977468;28;98665;-26
2023/07/08 00:33:37;;;;;;;3.05;1.75;;;;;;;21.09;49.81;101720.38;4977340;28;96685;-26
2023/07/08 00:36:11;;;;;;;3.03;1.70;;;;;;;21.17;49.72;101732.44;4977471;28;96773;-26
2023/07/08 00:38:36;;;;;;;3.30;1.67;;;;;;;21.13;50.03;101725.47;4976787;28;97979;-26
2023/07/08 00:41:01;;;;;;;3.60;1.50;;;;;;;21.14;49.49;101729.09;4976909;28;97716;-26
2023/07/08 00:43:51;;;;;;;3.45;1.65;;;;;;;21.09;50.01;101729.50;4977868;28;96569;-26
2023/07/08 00:46:29;;;;;;;4.78;1.48;;;;;;;20.96;50.30;101720.66;4977683;28;96819;-26
2023/07/08 00:49:06;;;;;;;3.10;1.63;;;;;;;21.03;50.04;101724.59;4976466;28;99747;-26
2023/07/08 00:51:33;;;;;;;1.95;1.23;;;;;;;20.95;49.68;101716.13;4976996;28;99034;-26
2023/07/08 00:53:58;;;;;;;3.55;1.58;;;;;;;20.93;50.10;101721.81;4976261;28;96611;-26
2023/07/08 00:56:30;;;;;;;3.20;1.60;;;;;;;20.96;50.01;101721.50;4977803;28;96810;-26
2023/07/08 00:59:03;;;;;;;2.25;1.42;;;;;;;20.91;50.49;101711.94;4975520;28;100937;-26
2023/07/08 01:01:34;;;;;;;4.38;1.65;;;;;;;20.91;50.52;101723.81;4975560;28;101311;-27
2023/07/08 01:04:06;;;;;;;3.40;1.30;;;;;;;20.86;50.47;101711.50;4975649;28;96653;-26
2023/07/08 01:06:34;;;;;;;3.40;1.67;;;;;;;20.87;50.37;101716.84;4975878;28;96726;-26
2023/07/08 01:09:05;;;;;;;3.03;1.65;;;;;;;20.72;50.66;101698.97;4975420;28;100987;-26
2023/07/08 01:11:32;;;;;;;2.67;1.40;;;;;;;20.83;50.77;101717.25;4975493;28;101003;-27
2023/07/08 01:14:01;;;;;;;1.67;1.30;;;;;;;20.79;50.72;101712.03;4975927;28;96742;-26
2023/07/08 01:16:27;;;;;;;2.28;1.35;;;;;;;20.75;50.60;101705.06;4975960;28;96540;-26
2023/07/08 01:18:55;;;;;;;4.47;1.33;;;;;;;20.73;50.84;101707.09;4976643;28;97559;-27
2023/07/08 01:21:37;;;;;;;3.05;1.60;;;;;;;20.68;51.06;101703.88;4977147;28;96984;-26
2023/07/08 01:24:06;;;;;;;2.00;1.35;;;;;;;20.68;50.89;101698.38;4976073;28;96593;-26
2023/07/08 01:26:34;;;;;;;2.72;1.60;;;;;;;20.64;51.10;101696.94;4975779;28;96849;-27
2023/07/08 01:29:01;;;;;;;2.17;1.45;;;;;;;20.66;50.90;101703.16;4974582;28;101561;-27
2023/07/08 01:31:26;;;;;;;2.63;1.60;;;;;;;20.63;51.20;101697.06;4976822;28;97372;-26
2023/07/08 01:33:52;;;;;;;2.88;1.30;;;;;;;20.57;50.75;101696.63;4977191;28;96597;-27
2023/07/08 01:36:18;;;;;;;3.15;1.63;;;;;;;20.58;51.07;101694.72;4975322;28;96847;-27
2023/07/08 01:38:45;;;;;;;2.65;1.50;;;;;;;20.56;51.14;101702.25;4975274;28;97995;-26
2023/07/08 01:41:12;;;;;;;2.33;1.52;;;;;;;20.56;51.60;101694.00;4975085;28;101270;-32
2023/07/08 01:43:37;;;;;;;3.55;1.73;;;;;;;20.56;51.74;101699.50;4975538;28;96678;-26
2023/07/08 01:46:03;;;;;;;2.78;1.60;;;;;;;20.49;51.67;101688.13;4977634;28;96781;-26
2023/07/08 01:48:36;;;;;;;2.55;1.60;;;;;;;20.47;51.83;101690.16;4975007;28;101153;-27
2023/07/08 01:51:04;;;;;;;5.32;1.80;;;;;;;20.50;51.74;101695.41;4974997;28;101387;-27
2023/07/08 01:53:36;;;;;;;2.83;1.60;;;;;;;20.49;52.08;101690.88;4974838;28;96697;-26
2023/07/08 01:56:02;;;;;;;;;;;;;;;20.44;52.61;101684.94;4975839;28;96895;-26
2023/07/08 01:58:27;;;;;;;2.53;1.38;;;;;;;20.40;52.40;101680.69;4976380;28;97965;-26
2023/07/08 02:00:54;;;;;;;3.47;1.83;;;;;;;20.32;51.74;101669.53;4978317;28;97732;-26
2023/07/08 02:03:20;;;;;;;2.92;1.60;;;;;;;20.34;52.31;101676.63;4978730;28;96796;-26
2023/07/08 02:05:45;;;;;;;2.67;1.38;;;;;;;20.32;52.08;101675.88;4980120;28;96856;-26
2023/07/08 02:08:11;;;;;;;2.05;1.35;;;;;;;20.34;52.60;101668.38;4979519;28;98003;-26
2023/07/08 02:10:38;;;;;;;3.28;1.67;;;;;;;20.29;52.13;101669.81;4979304;28;99411;-26
2023/07/08 02:13:03;;;;;;;2.03;1.33;;;;;;;20.13;52.59;101659.28;4978586;28;96836;-26
2023/07/08 02:15:29;;;;;;;3.30;1.80;;;;;;;20.15;52.49;101669.16;4979854;28;96828;-26
2023/07/08 02:17:54;;;;;;;2.53;1.58;;;;;;;20.12;52.73;101657.56;4978607;28;99426;-26
2023/07/08 02:20:20;;;;;;;3.88;1.70;;;;;;;20.12;52.17;101661.19;4979331;28;97871;-26
2023/07/08 02:22:45;;;;;;;3.67;2.17;;;;;;;20.07;52.78;101654.31;4979875;28;96665;-27
2023/07/08 02:25:11;;;;;;;3.88;1.67;;;;;;;20.04;52.96;101660.09;4978075;28;96887;-26
2023/07/08 02:27:37;;;;;;;4.10;1.73;;;;;;;20.03;53.20;101659.25;4979353;28;97889;-26
2023/07/08 02:30:03;;;;;;;4.75;1.67;;;;;;;19.99;53.02;101657.75;4977688;28;100940;-26
2023/07/08 02:32:29;;;;;;;2.70;1.65;;;;;;;19.96;53.37;101646.19;4979263;28;96652;-26
2023/07/08 02:34:54;;;;;;;3.67;1.40;;;;;;;19.99;52.96;101651.41;4980080;28;96885;-26
2023/07/08 02:37:19;;;;;;;4.88;1.77;;;;;;;19.97;53.20;101654.28;4978728;28;102420;-26
2023/07/08 02:39:45;;;;;;;3.13;1.67;;;;;;;19.96;53.43;101648.94;4978900;28;97814;-26
2023/07/08 02:42:10;;;;;;;3.35;1.63;;;;;;;19.92;52.92;101654.69;4978643;28;96629;-27
2023/07/08 02:44:35;;;;;;;3.05;1.60;;;;;;;19.88;53.88;101649.63;4979450;28;96745;-26
2023/07/08 02:47:01;;;;;;;4.40;1.42;;;;;;;19.88;53.38;101639.47;4979162;28;97520;-27
2023/07/08 02:49:26;;;;;;;2.63;1.35;;;;;;;19.84;53.37;101638.00;4978757;28;98773;-27
2023/07/08 02:51:52;;;;;;;3.33;1.88;;;;;;;19.84;53.38;101631.63;4977869;28;96520;-26
2023/07/08 02:54:17;;;;;;;2.67;1.65;;;;;;;19.80;53.72;101633.78;4979376;28;96794;-27
2023/07/08 02:56:43;;;;;;;4.03;2.10;;;;;;;19.79;53.59;101643.03;4978837;28;97816;-27
2023/07/08 02:59:08;;;;;;;4.30;1.90;;;;;;;19.74;53.74;101642.56;4979068;28;97888;-26
2023/07/08 03:01:41;;;;;;;3.22;1.70;;;;;;;19.69;54.09;101642.13;4979180;28;96541;-27
2023/07/08 03:04:08;;;;;;;3.72;1.65;;;;;;;19.68;54.27;101641.22;4978870;28;96666;-26
2023/07/08 03:06:34;;;;;;;2.70;1.58;;;;;;;19.66;54.41;101651.47;4976707;28;101412;-27
2023/07/08 03:09:00;;;;;;;3.03;1.80;;;;;;;19.66;54.93;101645.06;4976931;28;100593;-26
2023/07/08 03:11:25;;;;;;;3.28;1.67;;;;;;;19.65;54.60;101643.34;4979034;28;96638;-26
2023/07/08 03:13:50;;;;;;;3.95;1.52;;;;;;;19.63;54.12;101648.09;4978952;28;96830;-26
2023/07/08 03:16:16;;;;;;;2.65;1.48;;;;;;;19.66;54.66;101653.31;4978271;28;99531;-26
2023/07/08 03:18:47;;;;;;;3.42;1.48;;;;;;;19.66;54.11;101656.97;4978221;28;98813;-26
2023/07/08 03:21:14;;;;;;;4.93;1.70;;;;;;;19.60;54.55;101652.00;4978771;28;96624;-26
2023/07/08 03:23:40;;;;;;;3.75;1.70;;;;;;;19.55;54.96;101653.41;4977756;28;96892;-26
2023/07/08 03:26:06;;;;;;;2.67;1.63;;;;;;;19.53;54.90;101661.78;4976732;28;101097;-28
2023/07/08 03:28:31;;;;;;;4.20;2.05;;;;;;;19.49;54.95;101650.16;4978310;28;97875;-27
2023/07/08 03:30:57;;;;;;;2.92;1.75;;;;;;;19.49;55.04;101660.28;4978055;28;96601;-26
2023/07/08 03:33:22;;;;;;;3.85;1.77;;;;;;;19.39;55.59;101648.34;4978582;28;96801;-26
2023/07/08 03:35:49;;;;;;;3.42;1.80;;;;;;;19.48;55.16;101664.06;4976918;28;97979;-26
2023/07/08 03:38:14;;;;;;;3.25;1.65;;;;;;;19.44;55.64;101662.56;4976748;28;100996;-26
2023/07/08 03:40:39;;;;;;;4.20;1.95;;;;;;;19.39;55.39;101654.72;4978051;28;97043;-26
2023/07/08 03:43:04;;;;;;;4.13;1.63;;;;;;;19.42;55.69;101665.44;4978563;28;96818;-26
2023/07/08 03:45:30;;;;;;;3.35;1.67;;;;;;;19.36;55.78;101655.00;4978147;28;97873;-26
2023/07/08 03:47:55;;;;;;;2.65;1.52;;;;;;;19.38;55.99;101661.22;4978490;28;97754;-27
2023/07/08 03:50:23;;;;;;;3.97;1.77;;;;;;;19.35;55.61;101660.59;4978562;28;96694;-27
2023/07/08 03:52:51;;;;;;;2.97;1.77;;;;;;;19.36;55.85;101662.38;4976990;28;96927;-26
2023/07/08 03:55:17;;;;;;;2.78;1.65;;;;;;;19.31;55.93;101669.13;4977190;28;99939;-26
2023/07/08 03:57:42;;;;;;;3.03;1.80;;;;;;;19.26;56.31;101668.66;4977576;28;99265;-26
2023/07/08 04:00:09;;;;;;;4.55;1.60;;;;;;;19.19;56.17;101645.44;4978370;28;96480;-28
2023/07/08 04:02:35;;;;;;;3.13;1.70;;;;;;;19.24;56.06;101659.66;4976812;28;96854;-27
2023/07/08 04:05:01;;;;;;;3.40;2.03;;;;;;;19.22;55.95;101656.16;4976058;28;100893;-26
2023/07/08 04:07:26;;;;;;;3.22;1.63;;;;;;;19.27;56.50;101666.75;4977675;28;97782;-26
2023/07/08 04:09:52;;;;;;;3.33;1.83;;;;;;;19.25;56.55;101666.00;4978501;28;96647;-26
2023/07/08 04:12:17;;;;;;;2.85;1.80;;;;;;;19.22;56.79;101664.41;4978402;28;96848;-26
2023/07/08 04:14:43;;;;;;;3.55;1.80;;;;;;;19.16;56.46;101662.16;4977646;28;98308;-26
2023/07/08 04:17:09;;;;;;;3.63;1.80;;;;;;;19.19;56.40;101661.06;4977694;28;97988;-26
2023/07/08 04:19:35;;;;;;;4.40;1.80;;;;;;;19.18;56.87;101665.66;4977537;28;96486;-26
2023/07/08 04:22:02;;;;;;;3.38;1.42;;;;;;;19.18;57.06;101671.16;4976552;28;96897;-27
2023/07/08 04:24:27;;;;;;;3.10;1.75;;;;;;;19.16;57.42;101664.03;4975305;28;101512;-26
2023/07/08 04:26:53;;;;;;;2.60;1.48;;;;;;;19.16;57.10;101672.28;4977941;28;97213;-26
2023/07/08 04:29:20;;;;;;;6.43;1.95;;;;;;;19.12;56.76;101662.59;4977755;28;96486;-26
2023/07/08 04:31:46;;;;;;;2.20;1.58;;;;;;;19.10;57.04;101663.56;4976360;28;96830;-27
2023/07/08 04:34:11;;;;;;;2.88;1.60;;;;;;;19.13;57.67;101675.31;4975727;28;101340;-26
2023/07/08 04:36:37;;;;;;;4.15;1.58;;;;;;;19.13;57.43;101669.81;4976927;28;97317;-26
2023/07/08 04:39:04;;;;;;;2.20;1.52;;;;;;;19.11;57.32;101678.16;4977764;28;96481;-26
2023/07/08 04:41:30;;;;;;;3.60;1.75;;;;;;;19.10;58.20;101674.56;4976002;28;96871;-26
2023/07/08 04:43:57;;;;;;;2.83;1.45;;;;;;;19.10;56.83;101684.69;4975229;28;98136;-27
2023/07/08 04:46:48;;;;;;;2.38;1.60;;;;;;;19.13;57.59;101686.28;4976925;28;99207;-26
2023/07/08 04:49:13;;;;;;;4.07;2.20;;;;;;;19.12;57.33;101681.81;4976409;28;96715;-26
2023/07/08 04:51:40;;;;;;;3.10;1.60;;;;;;;19.09;57.24;101663.69;4977786;28;96787;-26
2023/07/08 04:54:06;;;;;;;3.72;1.92;;;;;;;19.15;57.42;101674.16;4975721;28;100981;-26
2023/07/08 04:56:37;;;;;;;4.30;1.90;;;;;;;19.17;56.92;101674.06;4975660;28;101437;-26
2023/07/08 04:59:03;;;;;;;2.72;1.80;;;;;;;19.16;57.13;101672.28;4976154;28;96752;-27
2023/07/08 05:01:29;;;;;;;3.08;1.75;;;;;;;19.17;57.41;101669.44;4976310;28;96992;-29
2023/07/08 05:03:54;;;;;;;3.72;2.08;;;;;;;19.18;56.53;101673.91;4975649;28;101333;-26
2023/07/08 05:06:20;;;;;;;3.70;1.88;;;;;;;19.19;56.66;101680.28;4976827;28;98836;-26
2023/07/08 05:08:45;;;;;;;3.22;1.45;;;;;;;19.18;56.95;101670.28;4976947;28;96653;-26
2023/07/08 05:11:10;;;;;;;3.00;1.75;;;;;;;19.24;56.56;101673.41;4977586;28;96677;-26
2023/07/08 05:13:36;;;;;;;6.07;1.75;;;;;;;19.28;56.63;101676.72;4976922;28;98100;-26
2023/07/08 05:16:01;;;;;;;3.97;1.77;;;;;;;19.22;56.54;101669.91;4976817;28;97153;-26
2023/07/08 05:18:26;;;;;;;3.05;1.80;;;;;;;19.27;57.24;101678.63;4977411;28;96643;-26
2023/07/08 05:20:52;;;;;;;2.25;1.50;;;;;;;19.28;56.84;101666.66;4977141;28;96811;-26
2023/07/08 05:23:18;;;;;;;2.45;1.55;;;;;;;19.29;56.97;101676.63;4975400;28;98854;-26
2023/07/08 05:25:43;;;;;;;5.13;1.55;;;;;;;19.35;56.70;101668.84;4977123;28;97309;-26
2023/07/08 05:28:09;;;;;;;3.38;1.55;;;;;;;19.36;56.75;101665.13;4977095;28;96754;-26
2023/07/08 05:30:35;;;;;;;3.58;1.92;;;;;;;19.40;56.26;101656.47;4975502;28;96884;-27
2023/07/08 05:33:00;;;;;;;3.55;1.70;;;;;;;19.47;56.13;101662.28;4974774;28;100945;-26
2023/07/08 05:35:26;;;;;;;2.90;1.67;;;;;;;19.50;56.26;101662.91;4977145;28;99093;-26
2023/07/08 05:37:51;;;;;;;4.22;1.52;;;;;;;19.57;56.08;101654.13;4980489;28;96589;-26
2023/07/08 05:40:16;;;;;;;3.22;1.73;;;;;;;19.55;56.33;101650.66;4980490;28;96783;-26
2023/07/08 05:42:42;;;;;;;3.20;1.95;;;;;;;19.64;56.40;101664.47;4979967;28;101576;-26
2023/07/08 05:45:10;;;;;;;3.05;1.70;;;;;;;19.72;55.97;101664.69;4979760;28;97894;-26
2023/07/08 05:47:36;;;;;;;2.78;1.52;;;;;;;19.67;55.97;101652.34;4978963;28;96906;-26
2023/07/08 05:50:01;;;;;;;3.30;1.88;;;;;;;19.83;56.23;101669.28;4979147;28;96806;-26
2023/07/08 05:52:27;;;;;;;2.67;1.42;;;;;;;19.91;55.83;101661.19;4979691;28;97962;-28
2023/07/08 05:54:52;;;;;;;3.05;1.67;;;;;;;20.06;55.52;101663.59;4979752;28;97765;-26
2023/07/08 05:57:18;;;;;;;4.68;1.92;;;;;;;20.19;55.44;101667.00;4980052;28;96520;-26
2023/07/08 05:59:43;;;;;;;4.22;1.73;;;;;;;20.29;55.43;101673.44;4979843;28;96588;-26
2023/07/08 06:02:10;;;;;;;2.78;1.65;;;;;;;20.40;55.34;101663.31;4980041;28;96986;-26
2023/07/08 06:04:36;;;;;;;6.03;1.67;;;;;;;20.44;55.02;101662.03;4978058;28;101376;-26
2023/07/08 06:07:01;;;;;;;5.85;1.65;;;;;;;20.51;54.87;101660.47;4979937;28;96673;-27
2023/07/08 06:09:26;;;;;;;3.53;1.83;;;;;;;20.64;55.07;101669.41;4979820;28;96799;-25
2023/07/08 06:11:52;;;;;;;3.50;1.70;;;;;;;20.68;54.96;101659.84;4979654;28;97887;-26
2023/07/08 06:14:17;;;;;;;3.13;2.13;;;;;;;20.73;55.11;101657.53;4979783;28;97280;-27
2023/07/08 06:16:42;;;;;;;2.63;1.50;;;;;;;20.82;54.59;101664.06;4979680;28;96516;-26
2023/07/08 06:19:08;;;;;;;3.28;1.80;;;;;;;20.88;55.37;101666.28;4980002;28;96849;-26
2023/07/08 06:21:34;;;;;;;3.00;1.77;;;;;;;20.88;55.21;101651.59;4978648;28;99563;-26
2023/07/08 06:24:00;;;;;;;2.78;1.75;;;;;;;21.11;55.21;101669.63;4979436;28;97863;-26
2023/07/08 06:26:25;;;;;;;2.50;1.73;;;;;;;21.13;54.82;101652.97;4979658;28;96860;-27
2023/07/08 06:28:50;;;;;;;3.05;1.70;;;;;;;21.34;54.41;101661.09;4980022;28;96828;-26
2023/07/08 06:31:16;;;;;;;3.30;1.45;;;;;;;21.39;54.37;101658.78;4978922;28;99715;-26
2023/07/08 06:33:42;;;;;;;4.57;1.80;;;;;;;21.50;53.90;101660.53;4978405;28;109100;-26
2023/07/08 06:36:08;;;;;;;4.40;2.25;;;;;;;21.65;53.57;101661.84;4978668;28;96852;-26
2023/07/08 06:38:33;;;;;;;3.40;1.73;;;;;;;21.72;53.54;101667.66;4979682;28;96942;-26
2023/07/08 06:40:59;;;;;;;3.45;1.88;;;;;;;21.91;53.33;101673.13;4979088;28;97923;-26
2023/07/08 06:43:24;;;;;;;3.42;1.95;;;;;;;21.98;53.38;101663.25;4978751;28;97461;-26
2023/07/08 06:45:49;;;;;;;3.40;1.58;;;;;;;22.14;53.20;101664.47;4978520;28;96519;-26
2023/07/08 06:48:15;;;;;;;3.33;1.85;;;;;;;22.20;52.67;101658.38;4979075;28;96493;-26
2023/07/08 06:50:49;;;;;;;4.55;1.73;;;;;;;22.35;52.42;101665.16;4978774;28;98042;-26
2023/07/08 06:53:15;;;;;;;2.63;1.65;;;;;;;22.52;52.80;101666.25;4977276;28;101033;-26
2023/07/08 06:55:41;;;;;;;3.30;1.77;;;;;;;22.63;52.68;101655.00;4977625;28;96699;-26
2023/07/08 06:58:06;;;;;;;4.05;1.80;;;;;;;22.66;52.46;101660.22;4979217;28;96915;-27
2023/07/08 07:00:32;;;;;;;4.07;1.73;;;;;;;22.69;52.27;101659.03;4978681;28;97911;-26
2023/07/08 07:02:57;;;;;;;7.03;1.70;;;;;;;22.80;52.13;101655.22;4978917;28;97743;-26
2023/07/08 07:05:23;;;;;;;3.50;1.73;;;;;;;22.86;51.84;101652.72;4979337;28;96569;-26
2023/07/08 07:07:48;;;;;;;3.25;1.80;;;;;;;23.04;51.54;101649.13;4977649;28;97039;-26
2023/07/08 07:10:14;;;;;;;3.15;2.00;;;;;;;23.04;51.26;101660.19;4977846;28;99048;-26
2023/07/08 07:12:39;;;;;;;3.22;1.80;;;;;;;23.14;51.76;101660.97;4978442;28;98361;-26
2023/07/08 07:15:05;;;;;;;3.90;2.00;;;;;;;23.29;51.58;101642.81;4979119;28;96539;-27
2023/07/08 07:17:30;;;;;;;5.57;2.50;;;;;;;23.40;51.06;101651.88;4977407;28;96852;-26
2023/07/08 07:19:56;;;;;;;4.32;1.83;;;;;;;23.41;50.04;101646.22;4978276;28;98018;-26
2023/07/08 07:22:22;;;;;;;3.05;2.08;;;;;;;23.45;51.05;101653.13;4978077;28;99106;-26
2023/07/08 07:24:48;;;;;;;4.78;2.55;;;;;;;23.56;50.61;101646.50;4977270;28;96676;-27
2023/07/08 07:27:13;;;;;;;5.70;2.15;;;;;;;23.68;50.39;101655.41;4977155;28;96946;-26
2023/07/08 07:29:48;;;;;;;4.15;2.17;;;;;;;23.84;50.25;101658.34;4978599;28;97947;-27
2023/07/08 07:32:14;;;;;;;3.85;2.00;;;;;;;23.91;50.48;101641.97;4974978;28;100955;-27
2023/07/08 07:34:40;;;;;;;6.43;2.17;;;;;;;24.13;50.39;101641.41;4977749;28;97096;-26
2023/07/08 07:37:10;;;;;;;3.72;1.88;;;;;;;24.20;49.60;101627.78;4976487;28;97683;-27
2023/07/08 07:39:35;;;;;;;11.63;3.88;;;;;;;24.28;49.93;101640.78;4976438;28;101128;-26
2023/07/08 07:42:01;;;;;;;4.18;2.00;;;;;;;24.32;50.15;101632.00;4977770;28;97270;-26
2023/07/08 07:44:26;;;;;;;3.60;2.10;;;;;;;24.47;50.07;101634.19;4978639;28;96578;-28
2023/07/08 07:46:53;;;;;;;4.32;2.15;;;;;;;24.60;49.41;101640.13;4978492;28;96859;-26
2023/07/08 07:49:19;;;;;;;3.85;1.88;;;;;;;24.64;49.46;101641.50;4976487;28;100942;-26
2023/07/08 07:51:45;;;;;;;2.80;1.83;;;;;;;24.89;49.35;101644.38;4978428;28;97912;-26
2023/07/08 07:54:10;;;;;;;4.32;2.20;;;;;;;24.98;49.15;101641.47;4978285;28;97146;-26
2023/07/08 07:56:35;;;;;;;4.22;2.15;;;;;;;25.04;48.75;101650.97;4978178;28;97234;-27
2023/07/08 07:59:01;;;;;;;3.53;2.03;;;;;;;25.19;48.77;101652.09;4976341;28;97494;-26
2023/07/08 08:01:26;;;;;;;3.58;1.80;;;;;;;25.30;48.67;101648.13;4977578;28;99178;-26
2023/07/08 08:03:52;;;;;;;3.47;2.08;;;;;;;25.33;48.68;101646.91;4978297;28;96521;-26
2023/07/08 08:06:17;;;;;;;5.53;2.33;;;;;;;25.43;48.62;101650.38;4977946;28;96562;-26
2023/07/08 08:08:44;;;;;;;3.42;2.03;;;;;;;25.35;48.70;101655.94;4977627;28;97501;-27
2023/07/08 08:11:09;;;;;;;4.90;2.03;;;;;;;25.49;48.57;101659.94;4978558;28;100783;-27
2023/07/08 08:13:34;;;;;;;4.72;2.10;;;;;;;25.56;48.37;101672.94;4982857;28;96653;-28
2023/07/08 08:16:00;;;;;;;3.72;2.20;;;;;;;25.65;48.17;101671.03;4987409;28;96818;-27
2023/07/08 08:18:25;;;;;;;4.20;1.80;;;;;;;25.78;48.50;101665.81;4990475;28;99947;-26
2023/07/08 08:20:51;;;;;;;3.83;2.33;;;;;;;26.05;48.42;101670.16;4990777;28;97402;-31
2023/07/08 08:23:16;;;;;;;5.30;2.30;;;;;;;26.21;47.79;101672.03;4981678;28;97138;-28
2023/07/08 08:25:42;;;;;;;3.05;2.03;;;;;;;26.31;47.49;101676.53;4977941;28;96851;-28
2023/07/08 08:28:07;;;;;;;6.07;2.35;;;;;;;26.38;47.49;101656.16;4991481;28;98187;-27
2023/07/08 08:30:33;;;;;;;4.25;2.28;;;;;;;26.53;47.19;101653.53;4995107;28;97750;-28
2023/07/08 08:32:58;;;;;;;4.97;2.30;;;;;;;26.63;46.92;101659.78;4996009;28;97044;-30
2023/07/08 08:35:24;;;;;;;6.80;2.45;;;;;;;26.70;45.96;101659.91;4995209;28;96987;-27
2023/07/08 08:37:49;;;;;;;3.45;2.15;;;;;;;26.86;46.57;101665.41;4995028;28;97476;-27
2023/07/08 08:40:17;;;;;;;8.30;2.15;;;;;;;26.85;46.34;101648.88;4995292;28;97815;-31
2023/07/08 08:42:53;;;;;;;5.80;2.50;;;;;;;27.07;46.51;101653.59;4994694;28;97190;-29
2023/07/08 08:45:20;;;;;;;5.63;2.58;;;;;;;27.13;46.31;101645.59;4994901;28;97110;-28
2023/07/08 08:47:51;;;;;;;7.65;2.30;;;;;;;27.22;45.92;101650.97;4992492;28;101378;-27
2023/07/08 08:50:16;;;;;;;4.50;2.42;;;;;;;27.44;45.75;101651.16;4992963;28;100822;-27
2023/07/08 08:52:42;;;;;;;5.80;2.70;;;;;;;27.54;45.46;101649.81;4995084;28;97112;-29
2023/07/08 08:55:12;;;;;;;5.43;2.35;;;;;;;27.57;44.66;101653.28;4993362;28;97129;-28
2023/07/08 08:57:45;;;;;;;5.18;2.10;;;;;;;27.68;44.56;101656.50;4992839;28;101768;-29
2023/07/08 09:00:16;;;;;;;6.45;2.30;;;;;;;27.81;45.11;101655.00;4994728;28;101351;-27
2023/07/08 09:02:49;;;;;;;4.70;2.33;;;;;;;28.00;44.88;101656.41;4996041;28;96704;-27
2023/07/08 09:05:15;;;;;;;6.22;2.35;;;;;;;28.10;44.60;101652.31;4995982;28;96802;-27
2023/07/08 09:08:01;;;;;;;4.30;2.50;;;;;;;28.29;43.87;101652.78;4996826;28;98146;-27
2023/07/08 09:10:35;;;;;;;4.50;2.05;;;;;;;28.38;43.68;101651.63;4999604;28;98340;-27
2023/07/08 09:13:03;;;;;;;4.32;2.10;;;;;;;28.56;44.31;101654.06;4998918;28;96536;-27
2023/07/08 09:15:28;;;;;;;9.57;2.40;;;;;;;28.69;44.00;101659.81;4999009;28;96967;-27
2023/07/08 09:18:01;;;;;;;6.00;2.30;;;;;;;28.67;43.26;101650.75;5000076;28;99025;-27
2023/07/08 09:20:28;;;;;;;4.63;2.60;;;;;;;28.74;43.17;101656.44;4998720;28;101619;-28
2023/07/08 09:23:03;;;;;;;4.93;2.22;;;;;;;28.77;42.88;101661.59;4992655;28;98572;-28
2023/07/08 09:25:45;;;;;;;5.05;2.47;;;;;;;28.89;42.75;101670.34;4987386;28;97980;-28
2023/07/08 09:28:13;;;;;;;4.47;2.38;;;;;;;28.93;41.62;101666.13;4993598;28;98868;-27
2023/07/08 09:30:39;;;;;;;6.43;2.60;;;;;;;28.95;42.31;101664.00;5000385;28;97297;-32
2023/07/08 09:33:07;;;;;;;6.25;2.83;;;;;;;29.12;42.50;101667.44;5000429;28;96605;-27
2023/07/08 09:35:46;;;;;;;5.03;2.10;;;;;;;29.23;42.01;101671.66;4997184;28;96995;-29
2023/07/08 09:38:16;;;;;;;4.75;2.55;;;;;;;29.40;42.05;101660.03;4999412;28;97962;-27
2023/07/08 09:40:48;;;;;;;6.43;2.50;;;;;;;29.48;42.24;101652.56;4998368;28;100757;-28
2023/07/08 09:43:37;;;;;;;5.82;2.53;;;;;;;29.67;41.01;101662.25;4996535;28;96901;-30
2023/07/08 09:46:03;;;;;;;7.05;2.53;;;;;;;29.60;41.18;101646.28;4997666;28;96798;-28
2023/07/08 09:48:34;;;;;;;3.83;2.42;;;;;;;29.70;40.80;101656.25;4997369;28;98372;-28
2023/07/08 09:51:00;;;;;;;4.55;2.47;;;;;;;29.88;40.95;101641.78;4995614;28;101236;-25
2023/07/08 09:53:28;;;;;;;7.50;3.00;;;;;;;29.99;40.47;101647.69;4993586;28;96837;-30
2023/07/08 09:55:58;;;;;;;5.43;2.95;;;;;;;29.85;39.31;101645.88;4993619;28;96843;-30
2023/07/08 09:58:25;;;;;;;6.95;2.72;;;;;;;30.03;40.88;101646.22;4994923;28;100826;-27
2023/07/08 10:00:57;;;;;;;5.38;2.92;;;;;;;30.25;39.80;101644.25;4995495;28;101464;-27
2023/07/08 10:03:30;;;;;;;6.75;2.80;;;;;;;30.29;40.01;101650.28;4996634;28;96689;-27
2023/07/08 10:05:57;;;;;;;6.13;2.92;;;;;;;30.37;40.01;101636.16;4997132;28;96713;-27
2023/07/08 10:08:28;;;;;;;6.97;3.17;;;;;;;30.56;40.21;101633.63;4995540;28;100993;-27
2023/07/08 10:11:20;;;;;;;8.15;3.03;;;;;;;30.75;39.08;101646.00;4995477;28;99393;-27
2023/07/08 10:13:52;;;;;;;4.70;2.72;;;;;;;30.71;39.41;101653.94;4997055;28;96579;-27
2023/07/08 10:16:26;;;;;;;8.07;3.15;;;;;;;30.69;39.80;101650.50;4997347;28;96632;-27
2023/07/08 10:18:52;;;;;;;6.50;2.92;;;;;;;30.57;40.11;101653.03;4995353;28;100593;-28
2023/07/08 10:22:06;;;;;;;5.45;3.10;;;;;;;30.82;39.39;101653.38;4994935;28;100855;-27
2023/07/08 10:24:38;;;;;;;5.47;2.92;;;;;;;30.98;39.46;101660.53;4979551;28;96858;-27
2023/07/08 10:27:29;;;;;;;6.88;2.90;;;;;;;31.00;38.78;101665.94;4995628;28;96828;-27
2023/07/08 10:30:07;;;;;;;5.72;3.00;;;;;;;31.00;37.76;101664.00;4996267;28;97989;-27
